This is the latest recevied weather packets stored in our database for station/object DL2ARH-7. If no packets are shown the sender has not sent any weather packets the latest 10 day(s).
| Time | Temp. | Humidity | Pressure | Rain* | Wind** | Luminosity | Snow |
|---|---|---|---|---|---|---|---|
| 1787996129 | 23.33° C | 30% | 1015.3 hPa | 0 mm | - | - | - |
| 1787996062 | 23.33° C | 30% | 1015.4 hPa | 0 mm | - | - | - |
| 1787995994 | 23.33° C | 30% | 1015.3 hPa | 0 mm | - | - | - |
| 1787995864 | 22.78° C | 29% | 1015.5 hPa | 0 mm | - | - | - |
| 1787995729 | 23.33° C | 28% | 1015.3 hPa | 0 mm | - | - | - |
| 1787995662 | 23.33° C | 28% | 1015.4 hPa | 0 mm | - | - | - |
| 1787995595 | 23.33° C | 27% | 1015.3 hPa | 0 mm | - | - | - |
| 1787995462 | 23.33° C | 26% | 1015.3 hPa | 0 mm | - | - | - |
| 1787995396 | 23.33° C | 26% | 1015.4 hPa | 0 mm | - | - | - |
| 1787995329 | 23.89° C | 26% | 1015.3 hPa | 0 mm | - | - | - |
| 1787995197 | 23.33° C | 24% | 1015.4 hPa | 0 mm | - | - | - |
| 1787995130 | 48.33° C | 28% | 1015.5 hPa | 0 mm | - | - | - |
| 1787995065 | 23.33° C | 27% | 1015.3 hPa | 0 mm | - | - | - |
| 1787994997 | 23.89° C | 24% | 1015.2 hPa | 0 mm | - | - | - |
| 1787994930 | 23.89° C | 24% | 1015.3 hPa | 0 mm | - | - | - |
| 1787994864 | 23.33° C | 24% | 1015.3 hPa | 0 mm | - | - | - |
| 1787994798 | 23.33° C | 25% | 1015.3 hPa | 0 mm | - | - | - |
| 1787994664 | 23.33° C | 25% | 1015.3 hPa | 0 mm | - | - | - |
| 1787994399 | 23.33° C | 24% | 1015.2 hPa | 0 mm | - | - | - |
| 1787994332 | 23.33° C | 24% | 1015.3 hPa | 0 mm | - | - | - |
| 1787994265 | 23.33° C | 24% | 1015.2 hPa | 0 mm | - | - | - |
| 1787994198 | 23.89° C | 24% | 1015.1 hPa | 0 mm | - | - | - |
| 1787994131 | 23.33° C | 24% | 1015.1 hPa | 0 mm | - | - | - |
| 1787993999 | 23.33° C | 24% | 1015.1 hPa | 0 mm | - | - | - |
| 1787993932 | 23.33° C | 24% | 1015.2 hPa | 0 mm | - | - | - |
* Rain latest hour (hover to see other rain measurements)
** Current wind speed in m/s (hover to see current wind gust speed)